Elizabeth, Louisiana
Current Conditions -  °F | °C
As of 3:35 AM on Wednesday 22 Oct 2014 (Local Time) from KACP Reporting Station
Haze Haze  
Wind Chill: 54°   Ceiling: Unl
Heat Index: 54°   Visibility: 5mi
Dew Point: 53°   Wind: 0mph
Humidity: 95%   Direction: NA
Pressure: 30.05"   Gusts: NA
Location:  30.87°N, 92.79°W
Report Text: KACP 220835Z AUTO 00000KT 5SM BR SCT042 12/12 A3005 RMK AO2 T01230116
Loading
Personal Weather Stations






























Interactive Weather Map
Tropical Storm Tracking
New forecast layout! Learn more

10-Day Weather Forecast

Advertisements
Track Severe Weather on mobile